Aviation Digital Data Service (ADDS)

Output produced by METARs form (0232 UTC 05 March 2015)
found at http://aviationweather.gov/adds/metars/
 
KCLE 050102Z 0501/0606 29012KT P6SM SCT025 OVC100 
     FM050400 32010KT P6SM SCT250 
     FM051600 32010KT P6SM SCT035 BKN250